sensor_id;sensor_type;location;lat;lon;timestamp;temperature;humidity
13205;DHT22;6667;52.634;9.226;2024-03-23T00:52:35;7.80;99.90
13205;DHT22;6667;52.634;9.226;2024-03-23T00:55:00;7.80;99.90
13205;DHT22;6667;52.634;9.226;2024-03-23T00:57:27;7.80;99.90
13205;DHT22;6667;52.634;9.226;2024-03-23T00:59:53;7.70;99.90
13205;DHT22;6667;52.634;9.226;2024-03-23T01:02:19;7.70;99.90
13205;DHT22;6667;52.634;9.226;2024-03-23T01:04:45;7.70;99.90
13205;DHT22;6667;52.634;9.226;2024-03-23T01:07:12;7.80;99.90
13205;DHT22;6667;52.634;9.226;2024-03-23T01:09:39;7.70;99.90
13205;DHT22;6667;52.634;9.226;2024-03-23T01:12:06;7.70;99.90
13205;DHT22;6667;52.634;9.226;2024-03-23T01:14:31;7.70;99.90
13205;DHT22;6667;52.634;9.226;2024-03-23T01:16:58;7.70;99.90
13205;DHT22;6667;52.634;9.226;2024-03-23T01:19:23;7.70;99.90
13205;DHT22;6667;52.634;9.226;2024-03-23T01:21:50;7.60;99.90
13205;DHT22;6667;52.634;9.226;2024-03-23T01:24:16;7.60;99.90
13205;DHT22;6667;52.634;9.226;2024-03-23T01:26:44;7.50;99.90
13205;DHT22;6667;52.634;9.226;2024-03-23T01:29:09;7.50;99.90
13205;DHT22;6667;52.634;9.226;2024-03-23T01:31:36;7.50;99.90
13205;DHT22;6667;52.634;9.226;2024-03-23T01:34:02;7.50;99.90
13205;DHT22;6667;52.634;9.226;2024-03-23T01:36:29;7.50;99.90
13205;DHT22;6667;52.634;9.226;2024-03-23T01:38:54;7.50;99.90
13205;DHT22;6667;52.634;9.226;2024-03-23T01:41:21;7.50;99.90
13205;DHT22;6667;52.634;9.226;2024-03-23T01:43:48;7.50;99.90
13205;DHT22;6667;52.634;9.226;2024-03-23T01:46:15;7.50;99.90
13205;DHT22;6667;52.634;9.226;2024-03-23T01:48:40;7.50;99.90
13205;DHT22;6667;52.634;9.226;2024-03-23T01:51:07;7.50;99.90
13205;DHT22;6667;52.634;9.226;2024-03-23T01:53:33;7.50;99.90
13205;DHT22;6667;52.634;9.226;2024-03-23T01:55:59;7.40;99.90
13205;DHT22;6667;52.634;9.226;2024-03-23T01:58:25;7.50;99.90
13205;DHT22;6667;52.634;9.226;2024-03-23T02:00:53;7.40;99.90
13205;DHT22;6667;52.634;9.226;2024-03-23T02:03:23;7.40;99.90
13205;DHT22;6667;52.634;9.226;2024-03-23T02:05:50;7.40;99.90
13205;DHT22;6667;52.634;9.226;2024-03-23T02:08:17;7.40;99.90
13205;DHT22;6667;52.634;9.226;2024-03-23T02:10:44;7.40;99.90
13205;DHT22;6667;52.634;9.226;2024-03-23T02:13:10;7.40;99.90
13205;DHT22;6667;52.634;9.226;2024-03-23T02:15:36;7.40;99.90
13205;DHT22;6667;52.634;9.226;2024-03-23T02:18:04;7.30;99.90
13205;DHT22;6667;52.634;9.226;2024-03-23T02:20:30;7.30;99.90
13205;DHT22;6667;52.634;9.226;2024-03-23T02:22:57;7.30;99.90
13205;DHT22;6667;52.634;9.226;2024-03-23T02:25:24;7.30;99.90
13205;DHT22;6667;52.634;9.226;2024-03-23T02:27:50;7.30;99.90
13205;DHT22;6667;52.634;9.226;2024-03-23T02:30:18;7.40;99.90
13205;DHT22;6667;52.634;9.226;2024-03-23T02:32:44;7.40;99.90
13205;DHT22;6667;52.634;9.226;2024-03-23T02:35:10;7.40;99.90
13205;DHT22;6667;52.634;9.226;2024-03-23T02:37:36;7.30;99.90
13205;DHT22;6667;52.634;9.226;2024-03-23T02:40:04;7.30;99.90
13205;DHT22;6667;52.634;9.226;2024-03-23T02:42:30;7.30;99.90
13205;DHT22;6667;52.634;9.226;2024-03-23T02:44:57;7.40;99.90
13205;DHT22;6667;52.634;9.226;2024-03-23T02:47:23;7.40;99.90
13205;DHT22;6667;52.634;9.226;2024-03-23T02:49:50;7.40;99.90
13205;DHT22;6667;52.634;9.226;2024-03-23T02:52:15;7.40;99.90
13205;DHT22;6667;52.634;9.226;2024-03-23T02:54:42;7.40;99.90
13205;DHT22;6667;52.634;9.226;2024-03-23T02:57:11;7.30;99.90
13205;DHT22;6667;52.634;9.226;2024-03-23T02:59:38;7.30;99.90
13205;DHT22;6667;52.634;9.226;2024-03-23T03:02:04;7.30;99.90
13205;DHT22;6667;52.634;9.226;2024-03-23T03:04:31;7.30;99.90
13205;DHT22;6667;52.634;9.226;2024-03-23T03:06:57;7.40;99.90
13205;DHT22;6667;52.634;9.226;2024-03-23T03:09:24;7.40;99.90
13205;DHT22;6667;52.634;9.226;2024-03-23T03:11:50;7.30;99.90
13205;DHT22;6667;52.634;9.226;2024-03-23T03:14:18;7.30;99.90
13205;DHT22;6667;52.634;9.226;2024-03-23T03:16:43;7.20;99.90
13205;DHT22;6667;52.634;9.226;2024-03-23T03:19:10;7.20;99.90
13205;DHT22;6667;52.634;9.226;2024-03-23T03:21:36;7.20;99.90
13205;DHT22;6667;52.634;9.226;2024-03-23T03:24:05;7.20;99.90
13205;DHT22;6667;52.634;9.226;2024-03-23T03:26:31;7.20;99.90
13205;DHT22;6667;52.634;9.226;2024-03-23T03:28:58;7.20;99.90
13205;DHT22;6667;52.634;9.226;2024-03-23T03:31:25;7.10;99.90
13205;DHT22;6667;52.634;9.226;2024-03-23T03:33:51;7.20;99.90
13205;DHT22;6667;52.634;9.226;2024-03-23T03:36:17;7.10;99.90
13205;DHT22;6667;52.634;9.226;2024-03-23T03:38:43;7.10;99.90
13205;DHT22;6667;52.634;9.226;2024-03-23T03:41:09;7.10;99.90
13205;DHT22;6667;52.634;9.226;2024-03-23T03:43:36;7.20;99.90
13205;DHT22;6667;52.634;9.226;2024-03-23T03:46:02;7.10;99.90
13205;DHT22;6667;52.634;9.226;2024-03-23T03:48:30;7.10;99.90
13205;DHT22;6667;52.634;9.226;2024-03-23T03:50:55;7.10;99.90
13205;DHT22;6667;52.634;9.226;2024-03-23T03:53:22;7.10;99.90
13205;DHT22;6667;52.634;9.226;2024-03-23T03:55:48;7.00;99.90
13205;DHT22;6667;52.634;9.226;2024-03-23T03:58:14;7.00;99.90
13205;DHT22;6667;52.634;9.226;2024-03-23T04:00:40;7.00;99.90
13205;DHT22;6667;52.634;9.226;2024-03-23T04:03:07;7.00;99.90
13205;DHT22;6667;52.634;9.226;2024-03-23T04:05:34;7.00;99.90
13205;DHT22;6667;52.634;9.226;2024-03-23T04:08:01;6.90;99.90
13205;DHT22;6667;52.634;9.226;2024-03-23T04:10:27;6.90;99.90
13205;DHT22;6667;52.634;9.226;2024-03-23T04:12:53;6.90;99.90
13205;DHT22;6667;52.634;9.226;2024-03-23T04:15:19;6.90;99.90
13205;DHT22;6667;52.634;9.226;2024-03-23T04:17:46;6.90;99.90
13205;DHT22;6667;52.634;9.226;2024-03-23T04:20:11;6.90;99.90
13205;DHT22;6667;52.634;9.226;2024-03-23T04:22:43;6.90;99.90
13205;DHT22;6667;52.634;9.226;2024-03-23T04:25:09;6.90;99.90
13205;DHT22;6667;52.634;9.226;2024-03-23T04:27:36;6.90;99.90
13205;DHT22;6667;52.634;9.226;2024-03-23T04:30:02;6.90;99.90
13205;DHT22;6667;52.634;9.226;2024-03-23T04:32:30;6.80;99.90
13205;DHT22;6667;52.634;9.226;2024-03-23T04:34:56;6.90;99.90
13205;DHT22;6667;52.634;9.226;2024-03-23T04:37:23;6.80;99.90
13205;DHT22;6667;52.634;9.226;2024-03-23T04:39:51;6.80;99.90
13205;DHT22;6667;52.634;9.226;2024-03-23T04:42:18;6.80;99.90
13205;DHT22;6667;52.634;9.226;2024-03-23T04:44:44;6.80;99.90
13205;DHT22;6667;52.634;9.226;2024-03-23T04:47:11;6.80;99.90
13205;DHT22;6667;52.634;9.226;2024-03-23T04:49:37;6.80;99.90
13205;DHT22;6667;52.634;9.226;2024-03-23T04:52:05;6.80;99.90
13205;DHT22;6667;52.634;9.226;2024-03-23T04:54:32;6.80;99.90
13205;DHT22;6667;52.634;9.226;2024-03-23T04:57:00;6.80;99.90
13205;DHT22;6667;52.634;9.226;2024-03-23T04:59:26;6.80;99.90
13205;DHT22;6667;52.634;9.226;2024-03-23T05:01:52;6.80;99.90
13205;DHT22;6667;52.634;9.226;2024-03-23T05:04:19;6.70;99.90
13205;DHT22;6667;52.634;9.226;2024-03-23T05:06:45;6.70;99.90
13205;DHT22;6667;52.634;9.226;2024-03-23T05:09:11;6.70;99.90
13205;DHT22;6667;52.634;9.226;2024-03-23T05:11:37;6.70;99.90
13205;DHT22;6667;52.634;9.226;2024-03-23T05:14:05;6.70;99.90
13205;DHT22;6667;52.634;9.226;2024-03-23T05:16:31;6.70;99.90
13205;DHT22;6667;52.634;9.226;2024-03-23T05:18:57;6.70;99.90
13205;DHT22;6667;52.634;9.226;2024-03-23T05:21:23;6.60;99.90
13205;DHT22;6667;52.634;9.226;2024-03-23T05:23:50;6.70;99.90
13205;DHT22;6667;52.634;9.226;2024-03-23T05:26:16;6.60;99.90
13205;DHT22;6667;52.634;9.226;2024-03-23T05:28:43;6.60;99.90
13205;DHT22;6667;52.634;9.226;2024-03-23T05:31:10;6.60;99.90
13205;DHT22;6667;52.634;9.226;2024-03-23T05:33:37;6.60;99.90
13205;DHT22;6667;52.634;9.226;2024-03-23T05:36:04;6.60;99.90
13205;DHT22;6667;52.634;9.226;2024-03-23T05:38:31;6.50;99.90
13205;DHT22;6667;52.634;9.226;2024-03-23T05:40:57;6.60;99.90
13205;DHT22;6667;52.634;9.226;2024-03-23T05:43:25;6.50;99.90
13205;DHT22;6667;52.634;9.226;2024-03-23T05:45:54;6.60;99.90
13205;DHT22;6667;52.634;9.226;2024-03-23T05:48:22;6.60;99.90
13205;DHT22;6667;52.634;9.226;2024-03-23T05:50:48;6.50;99.90
13205;DHT22;6667;52.634;9.226;2024-03-23T05:53:15;6.60;99.90
13205;DHT22;6667;52.634;9.226;2024-03-23T05:55:40;6.60;99.90
13205;DHT22;6667;52.634;9.226;2024-03-23T05:58:07;6.60;99.90
13205;DHT22;6667;52.634;9.226;2024-03-23T06:00:33;6.60;99.90
13205;DHT22;6667;52.634;9.226;2024-03-23T06:03:00;6.60;99.90
13205;DHT22;6667;52.634;9.226;2024-03-23T06:05:27;6.60;99.90
13205;DHT22;6667;52.634;9.226;2024-03-23T06:07:53;6.50;99.90
13205;DHT22;6667;52.634;9.226;2024-03-23T06:10:19;6.50;99.90
13205;DHT22;6667;52.634;9.226;2024-03-23T06:12:46;6.50;99.90
13205;DHT22;6667;52.634;9.226;2024-03-23T06:15:12;6.60;99.90
13205;DHT22;6667;52.634;9.226;2024-03-23T06:17:39;6.50;99.90
13205;DHT22;6667;52.634;9.226;2024-03-23T06:20:05;6.60;99.90
13205;DHT22;6667;52.634;9.226;2024-03-23T06:22:33;6.60;99.90
13205;DHT22;6667;52.634;9.226;2024-03-23T06:24:59;6.60;99.90
13205;DHT22;6667;52.634;9.226;2024-03-23T06:27:26;6.60;99.90
13205;DHT22;6667;52.634;9.226;2024-03-23T06:29:52;6.60;99.90
13205;DHT22;6667;52.634;9.226;2024-03-23T06:32:18;6.70;99.90
13205;DHT22;6667;52.634;9.226;2024-03-23T06:34:45;6.70;99.90
13205;DHT22;6667;52.634;9.226;2024-03-23T06:37:11;6.80;99.90
13205;DHT22;6667;52.634;9.226;2024-03-23T06:39:39;6.80;99.90
13205;DHT22;6667;52.634;9.226;2024-03-23T06:42:05;6.80;99.90
13205;DHT22;6667;52.634;9.226;2024-03-23T06:44:32;6.80;99.90
13205;DHT22;6667;52.634;9.226;2024-03-23T06:46:57;6.90;99.90
13205;DHT22;6667;52.634;9.226;2024-03-23T06:49:24;7.00;99.90
13205;DHT22;6667;52.634;9.226;2024-03-23T06:51:50;7.00;99.90
13205;DHT22;6667;52.634;9.226;2024-03-23T06:54:17;7.10;99.90
13205;DHT22;6667;52.634;9.226;2024-03-23T06:56:45;7.20;99.90
13205;DHT22;6667;52.634;9.226;2024-03-23T06:59:11;7.20;99.90
13205;DHT22;6667;52.634;9.226;2024-03-23T07:01:37;7.30;99.90
13205;DHT22;6667;52.634;9.226;2024-03-23T07:04:04;7.20;99.90
13205;DHT22;6667;52.634;9.226;2024-03-23T07:06:30;7.20;99.90
13205;DHT22;6667;52.634;9.226;2024-03-23T07:08:57;7.30;99.90
13205;DHT22;6667;52.634;9.226;2024-03-23T07:11:23;7.40;99.90
13205;DHT22;6667;52.634;9.226;2024-03-23T07:13:52;7.60;99.90
13205;DHT22;6667;52.634;9.226;2024-03-23T07:16:19;7.50;99.90
13205;DHT22;6667;52.634;9.226;2024-03-23T07:18:46;7.50;99.90
13205;DHT22;6667;52.634;9.226;2024-03-23T07:21:12;7.60;99.90
13205;DHT22;6667;52.634;9.226;2024-03-23T07:23:42;7.60;99.90
13205;DHT22;6667;52.634;9.226;2024-03-23T07:26:10;7.60;99.90
13205;DHT22;6667;52.634;9.226;2024-03-23T07:28:37;7.90;99.90
13205;DHT22;6667;52.634;9.226;2024-03-23T07:31:06;7.90;99.90
13205;DHT22;6667;52.634;9.226;2024-03-23T07:33:35;8.00;99.90
13205;DHT22;6667;52.634;9.226;2024-03-23T07:36:02;8.10;99.90
13205;DHT22;6667;52.634;9.226;2024-03-23T07:38:29;8.10;99.90
13205;DHT22;6667;52.634;9.226;2024-03-23T07:41:04;8.00;99.90
13205;DHT22;6667;52.634;9.226;2024-03-23T07:43:31;8.20;99.90
13205;DHT22;6667;52.634;9.226;2024-03-23T07:45:57;8.50;99.90
13205;DHT22;6667;52.634;9.226;2024-03-23T07:48:26;8.60;99.90
13205;DHT22;6667;52.634;9.226;2024-03-23T07:50:59;8.70;99.90
13205;DHT22;6667;52.634;9.226;2024-03-23T07:53:26;8.80;99.90
13205;DHT22;6667;52.634;9.226;2024-03-23T07:55:56;9.00;99.90
13205;DHT22;6667;52.634;9.226;2024-03-23T07:58:23;9.30;99.90
13205;DHT22;6667;52.634;9.226;2024-03-23T08:00:49;9.40;99.90
13205;DHT22;6667;52.634;9.226;2024-03-23T08:03:15;9.40;99.90
13205;DHT22;6667;52.634;9.226;2024-03-23T08:05:42;9.60;99.90
13205;DHT22;6667;52.634;9.226;2024-03-23T08:08:09;10.40;99.90
13205;DHT22;6667;52.634;9.226;2024-03-23T08:10:35;10.70;99.90
13205;DHT22;6667;52.634;9.226;2024-03-23T08:13:01;10.40;99.90
13205;DHT22;6667;52.634;9.226;2024-03-23T08:15:30;10.20;99.90
13205;DHT22;6667;52.634;9.226;2024-03-23T08:17:58;10.10;99.90
13205;DHT22;6667;52.634;9.226;2024-03-23T08:20:24;10.30;99.90
13205;DHT22;6667;52.634;9.226;2024-03-23T08:22:52;10.30;99.90
13205;DHT22;6667;52.634;9.226;2024-03-23T08:25:17;10.80;99.90
13205;DHT22;6667;52.634;9.226;2024-03-23T08:27:44;11.30;99.90
13205;DHT22;6667;52.634;9.226;2024-03-23T08:30:11;11.90;99.90
13205;DHT22;6667;52.634;9.226;2024-03-23T08:32:37;12.30;99.90
13205;DHT22;6667;52.634;9.226;2024-03-23T08:35:04;12.20;99.90
13205;DHT22;6667;52.634;9.226;2024-03-23T08:37:30;12.90;99.90
13205;DHT22;6667;52.634;9.226;2024-03-23T08:39:57;12.80;99.90
13205;DHT22;6667;52.634;9.226;2024-03-23T08:42:24;12.10;99.90
13205;DHT22;6667;52.634;9.226;2024-03-23T08:44:50;11.80;99.90
13205;DHT22;6667;52.634;9.226;2024-03-23T08:47:16;12.20;99.90
13205;DHT22;6667;52.634;9.226;2024-03-23T08:49:42;11.70;99.90
13205;DHT22;6667;52.634;9.226;2024-03-23T08:52:09;11.20;99.90
13205;DHT22;6667;52.634;9.226;2024-03-23T08:54:34;11.10;99.90
13205;DHT22;6667;52.634;9.226;2024-03-23T08:57:03;11.60;99.90
13205;DHT22;6667;52.634;9.226;2024-03-23T08:59:28;12.00;99.90
13205;DHT22;6667;52.634;9.226;2024-03-23T09:01:56;12.00;99.90
13205;DHT22;6667;52.634;9.226;2024-03-23T09:04:22;11.90;99.90
13205;DHT22;6667;52.634;9.226;2024-03-23T09:06:48;11.90;99.90
13205;DHT22;6667;52.634;9.226;2024-03-23T09:09:14;11.50;99.90
13205;DHT22;6667;52.634;9.226;2024-03-23T09:11:40;11.20;99.90
13205;DHT22;6667;52.634;9.226;2024-03-23T09:14:07;11.20;99.90
13205;DHT22;6667;52.634;9.226;2024-03-23T09:16:34;11.20;99.90
13205;DHT22;6667;52.634;9.226;2024-03-23T09:19:00;11.10;99.90
13205;DHT22;6667;52.634;9.226;2024-03-23T09:21:27;11.00;99.90
13205;DHT22;6667;52.634;9.226;2024-03-23T09:23:52;10.80;99.90
13205;DHT22;6667;52.634;9.226;2024-03-23T09:26:19;11.00;99.90
13205;DHT22;6667;52.634;9.226;2024-03-23T09:28:44;11.10;99.90
13205;DHT22;6667;52.634;9.226;2024-03-23T09:31:15;11.40;99.90
13205;DHT22;6667;52.634;9.226;2024-03-23T09:33:41;11.30;99.90
13205;DHT22;6667;52.634;9.226;2024-03-23T09:36:08;11.30;99.90
13205;DHT22;6667;52.634;9.226;2024-03-23T09:38:34;11.20;99.90
13205;DHT22;6667;52.634;9.226;2024-03-23T09:41:07;11.30;99.90
13205;DHT22;6667;52.634;9.226;2024-03-23T09:43:33;11.80;99.90
13205;DHT22;6667;52.634;9.226;2024-03-23T09:46:01;11.90;99.90
13205;DHT22;6667;52.634;9.226;2024-03-23T09:48:29;12.10;99.90
13205;DHT22;6667;52.634;9.226;2024-03-23T09:50:56;11.80;99.90
13205;DHT22;6667;52.634;9.226;2024-03-23T09:53:21;11.30;99.90
13205;DHT22;6667;52.634;9.226;2024-03-23T09:55:48;11.80;99.90
13205;DHT22;6667;52.634;9.226;2024-03-23T09:58:15;12.50;99.90
13205;DHT22;6667;52.634;9.226;2024-03-23T10:00:42;12.30;99.90
13205;DHT22;6667;52.634;9.226;2024-03-23T10:03:08;11.80;99.90
13205;DHT22;6667;52.634;9.226;2024-03-23T10:05:38;11.20;99.90
13205;DHT22;6667;52.634;9.226;2024-03-23T10:08:18;9.70;99.90
13205;DHT22;6667;52.634;9.226;2024-03-23T10:10:46;9.30;99.90
13205;DHT22;6667;52.634;9.226;2024-03-23T10:13:23;9.20;99.90
13205;DHT22;6667;52.634;9.226;2024-03-23T10:15:55;9.10;99.90
13205;DHT22;6667;52.634;9.226;2024-03-23T10:18:21;8.90;99.90
13205;DHT22;6667;52.634;9.226;2024-03-23T10:21:00;8.40;99.90
13205;DHT22;6667;52.634;9.226;2024-03-23T10:23:31;8.60;99.90
13205;DHT22;6667;52.634;9.226;2024-03-23T10:26:12;8.60;99.90
13205;DHT22;6667;52.634;9.226;2024-03-23T10:28:51;8.80;99.90
13205;DHT22;6667;52.634;9.226;2024-03-23T10:31:18;9.00;99.90
13205;DHT22;6667;52.634;9.226;2024-03-23T10:33:45;9.10;99.90
13205;DHT22;6667;52.634;9.226;2024-03-23T10:36:14;9.30;99.90
13205;DHT22;6667;52.634;9.226;2024-03-23T10:38:41;9.40;99.90
13205;DHT22;6667;52.634;9.226;2024-03-23T10:41:08;9.30;99.90
13205;DHT22;6667;52.634;9.226;2024-03-23T10:43:35;9.00;99.90
13205;DHT22;6667;52.634;9.226;2024-03-23T10:46:02;8.90;99.90
13205;DHT22;6667;52.634;9.226;2024-03-23T10:48:28;9.80;99.90
13205;DHT22;6667;52.634;9.226;2024-03-23T10:50:54;11.20;99.90
13205;DHT22;6667;52.634;9.226;2024-03-23T10:53:25;11.60;99.90
13205;DHT22;6667;52.634;9.226;2024-03-23T10:55:54;12.20;99.90
13205;DHT22;6667;52.634;9.226;2024-03-23T10:58:23;12.30;99.90
13205;DHT22;6667;52.634;9.226;2024-03-23T11:00:51;11.80;99.90
13205;DHT22;6667;52.634;9.226;2024-03-23T11:03:36;10.60;99.90
13205;DHT22;6667;52.634;9.226;2024-03-23T11:06:05;9.30;99.90
13205;DHT22;6667;52.634;9.226;2024-03-23T11:08:33;8.90;99.90
13205;DHT22;6667;52.634;9.226;2024-03-23T11:11:14;8.70;99.90
13205;DHT22;6667;52.634;9.226;2024-03-23T11:13:40;8.60;99.90
13205;DHT22;6667;52.634;9.226;2024-03-23T11:16:21;8.70;99.90
13205;DHT22;6667;52.634;9.226;2024-03-23T11:18:47;8.60;99.90
13205;DHT22;6667;52.634;9.226;2024-03-23T11:21:53;8.60;99.90
13205;DHT22;6667;52.634;9.226;2024-03-23T11:24:21;8.50;99.90
13205;DHT22;6667;52.634;9.226;2024-03-23T11:26:47;8.70;99.90
13205;DHT22;6667;52.634;9.226;2024-03-23T11:29:14;8.70;99.90
13205;DHT22;6667;52.634;9.226;2024-03-23T11:31:46;8.70;99.90
13205;DHT22;6667;52.634;9.226;2024-03-23T11:34:12;8.70;99.90
13205;DHT22;6667;52.634;9.226;2024-03-23T11:36:38;8.60;99.90
13205;DHT22;6667;52.634;9.226;2024-03-23T11:39:12;9.00;99.90
13205;DHT22;6667;52.634;9.226;2024-03-23T11:41:47;9.60;99.90
13205;DHT22;6667;52.634;9.226;2024-03-23T11:44:17;10.40;99.90
13205;DHT22;6667;52.634;9.226;2024-03-23T11:46:43;10.70;99.90
13205;DHT22;6667;52.634;9.226;2024-03-23T11:49:20;10.80;99.90
13205;DHT22;6667;52.634;9.226;2024-03-23T11:51:47;10.80;99.90
13205;DHT22;6667;52.634;9.226;2024-03-23T11:54:13;11.10;99.90
13205;DHT22;6667;52.634;9.226;2024-03-23T11:56:40;11.20;99.90
13205;DHT22;6667;52.634;9.226;2024-03-23T11:59:07;11.20;99.90
13205;DHT22;6667;52.634;9.226;2024-03-23T12:01:33;11.20;99.90
13205;DHT22;6667;52.634;9.226;2024-03-23T12:03:59;11.50;99.90
13205;DHT22;6667;52.634;9.226;2024-03-23T12:06:26;11.40;99.90
13205;DHT22;6667;52.634;9.226;2024-03-23T12:08:51;11.90;99.90
13205;DHT22;6667;52.634;9.226;2024-03-23T12:11:18;12.40;99.90
13205;DHT22;6667;52.634;9.226;2024-03-23T12:13:45;12.60;99.90
13205;DHT22;6667;52.634;9.226;2024-03-23T12:16:18;12.10;99.90
13205;DHT22;6667;52.634;9.226;2024-03-23T12:18:47;12.10;99.90
13205;DHT22;6667;52.634;9.226;2024-03-23T12:21:14;12.20;99.90
13205;DHT22;6667;52.634;9.226;2024-03-23T12:23:40;12.40;99.90
13205;DHT22;6667;52.634;9.226;2024-03-23T12:26:07;12.50;99.90
13205;DHT22;6667;52.634;9.226;2024-03-23T12:28:33;12.30;99.90
13205;DHT22;6667;52.634;9.226;2024-03-23T12:31:00;12.00;99.90
13205;DHT22;6667;52.634;9.226;2024-03-23T12:33:27;12.30;99.90
13205;DHT22;6667;52.634;9.226;2024-03-23T12:35:53;12.60;99.90
13205;DHT22;6667;52.634;9.226;2024-03-23T12:38:19;12.70;99.90
13205;DHT22;6667;52.634;9.226;2024-03-23T12:40:46;12.40;99.90
13205;DHT22;6667;52.634;9.226;2024-03-23T12:43:13;12.20;99.90
13205;DHT22;6667;52.634;9.226;2024-03-23T12:45:39;12.60;99.90
13205;DHT22;6667;52.634;9.226;2024-03-23T12:48:06;12.50;99.90
13205;DHT22;6667;52.634;9.226;2024-03-23T12:50:34;12.90;99.90
13205;DHT22;6667;52.634;9.226;2024-03-23T12:52:59;13.00;99.90
13205;DHT22;6667;52.634;9.226;2024-03-23T12:55:26;13.20;99.90
13205;DHT22;6667;52.634;9.226;2024-03-23T12:57:52;13.20;99.90
13205;DHT22;6667;52.634;9.226;2024-03-23T13:00:18;13.10;99.90
13205;DHT22;6667;52.634;9.226;2024-03-23T13:02:45;13.30;99.90
13205;DHT22;6667;52.634;9.226;2024-03-23T13:05:12;13.30;99.90
13205;DHT22;6667;52.634;9.226;2024-03-23T13:07:39;13.20;99.90
13205;DHT22;6667;52.634;9.226;2024-03-23T13:10:06;13.20;99.90
13205;DHT22;6667;52.634;9.226;2024-03-23T13:12:32;13.10;99.90
13205;DHT22;6667;52.634;9.226;2024-03-23T13:14:59;13.50;99.90
13205;DHT22;6667;52.634;9.226;2024-03-23T13:17:25;13.40;99.90
13205;DHT22;6667;52.634;9.226;2024-03-23T13:19:52;13.50;99.90
13205;DHT22;6667;52.634;9.226;2024-03-23T13:22:18;13.40;99.90
13205;DHT22;6667;52.634;9.226;2024-03-23T13:24:46;13.80;99.90
13205;DHT22;6667;52.634;9.226;2024-03-23T13:27:11;13.70;99.90
13205;DHT22;6667;52.634;9.226;2024-03-23T13:29:38;13.50;99.90
13205;DHT22;6667;52.634;9.226;2024-03-23T13:32:04;13.60;99.90
13205;DHT22;6667;52.634;9.226;2024-03-23T13:34:31;13.80;99.90
13205;DHT22;6667;52.634;9.226;2024-03-23T13:36:58;14.10;99.90
13205;DHT22;6667;52.634;9.226;2024-03-23T13:39:25;14.40;99.90
13205;DHT22;6667;52.634;9.226;2024-03-23T13:41:54;14.50;99.90
13205;DHT22;6667;52.634;9.226;2024-03-23T13:44:21;14.10;99.90
13205;DHT22;6667;52.634;9.226;2024-03-23T13:46:47;13.50;99.90
13205;DHT22;6667;52.634;9.226;2024-03-23T13:49:24;13.00;99.90
13205;DHT22;6667;52.634;9.226;2024-03-23T13:51:50;12.50;99.90
13205;DHT22;6667;52.634;9.226;2024-03-23T13:54:17;11.70;99.90
13205;DHT22;6667;52.634;9.226;2024-03-23T13:56:43;11.50;99.90
13205;DHT22;6667;52.634;9.226;2024-03-23T13:59:11;11.20;99.90
13205;DHT22;6667;52.634;9.226;2024-03-23T14:01:37;11.20;99.90
13205;DHT22;6667;52.634;9.226;2024-03-23T14:04:04;11.80;99.90
13205;DHT22;6667;52.634;9.226;2024-03-23T14:06:29;12.20;99.90
13205;DHT22;6667;52.634;9.226;2024-03-23T14:08:56;12.20;99.90
13205;DHT22;6667;52.634;9.226;2024-03-23T14:11:22;12.10;99.90
13205;DHT22;6667;52.634;9.226;2024-03-23T14:13:48;11.90;99.90
13205;DHT22;6667;52.634;9.226;2024-03-23T14:16:15;11.80;99.90
13205;DHT22;6667;52.634;9.226;2024-03-23T14:18:42;11.30;99.90
13205;DHT22;6667;52.634;9.226;2024-03-23T14:21:07;11.40;99.90
13205;DHT22;6667;52.634;9.226;2024-03-23T14:23:36;11.30;99.90
13205;DHT22;6667;52.634;9.226;2024-03-23T14:26:01;11.20;99.90
13205;DHT22;6667;52.634;9.226;2024-03-23T14:28:28;10.60;99.90
13205;DHT22;6667;52.634;9.226;2024-03-23T14:30:55;10.00;99.90
13205;DHT22;6667;52.634;9.226;2024-03-23T14:33:23;9.50;99.90
13205;DHT22;6667;52.634;9.226;2024-03-23T14:35:52;9.20;99.90
13205;DHT22;6667;52.634;9.226;2024-03-23T14:38:19;9.10;99.90
13205;DHT22;6667;52.634;9.226;2024-03-23T14:40:45;9.10;99.90
13205;DHT22;6667;52.634;9.226;2024-03-23T14:43:11;8.80;99.90
13205;DHT22;6667;52.634;9.226;2024-03-23T14:45:37;8.60;99.90
13205;DHT22;6667;52.634;9.226;2024-03-23T14:48:04;8.80;99.90
13205;DHT22;6667;52.634;9.226;2024-03-23T14:50:31;8.80;99.90
13205;DHT22;6667;52.634;9.226;2024-03-23T14:53:00;8.90;99.90
13205;DHT22;6667;52.634;9.226;2024-03-23T14:55:25;8.90;99.90
13205;DHT22;6667;52.634;9.226;2024-03-23T14:57:52;9.20;99.90
13205;DHT22;6667;52.634;9.226;2024-03-23T15:00:18;9.30;99.90
13205;DHT22;6667;52.634;9.226;2024-03-23T15:02:45;9.40;99.90
13205;DHT22;6667;52.634;9.226;2024-03-23T15:05:11;9.40;99.90
13205;DHT22;6667;52.634;9.226;2024-03-23T15:07:40;9.40;99.90
13205;DHT22;6667;52.634;9.226;2024-03-23T15:10:06;9.20;99.90
13205;DHT22;6667;52.634;9.226;2024-03-23T15:12:33;9.00;99.90
13205;DHT22;6667;52.634;9.226;2024-03-23T15:14:59;8.70;99.90
13205;DHT22;6667;52.634;9.226;2024-03-23T15:17:26;8.30;99.90
13205;DHT22;6667;52.634;9.226;2024-03-23T15:19:52;8.10;99.90
13205;DHT22;6667;52.634;9.226;2024-03-23T15:22:19;8.10;99.90
13205;DHT22;6667;52.634;9.226;2024-03-23T15:24:46;8.00;99.90
13205;DHT22;6667;52.634;9.226;2024-03-23T15:27:12;8.20;99.90
13205;DHT22;6667;52.634;9.226;2024-03-23T15:29:38;8.20;99.90
13205;DHT22;6667;52.634;9.226;2024-03-23T15:32:05;8.60;99.90
13205;DHT22;6667;52.634;9.226;2024-03-23T15:34:31;8.70;99.90
13205;DHT22;6667;52.634;9.226;2024-03-23T15:36:57;8.60;99.90
13205;DHT22;6667;52.634;9.226;2024-03-23T15:39:23;8.60;99.90
13205;DHT22;6667;52.634;9.226;2024-03-23T15:41:51;8.60;99.90
13205;DHT22;6667;52.634;9.226;2024-03-23T15:44:17;8.70;99.90
13205;DHT22;6667;52.634;9.226;2024-03-23T15:46:43;8.60;99.90
13205;DHT22;6667;52.634;9.226;2024-03-23T15:49:09;8.60;99.90
13205;DHT22;6667;52.634;9.226;2024-03-23T15:51:35;8.30;99.90
13205;DHT22;6667;52.634;9.226;2024-03-23T15:54:02;8.10;99.90
13205;DHT22;6667;52.634;9.226;2024-03-23T15:56:29;7.90;99.90
13205;DHT22;6667;52.634;9.226;2024-03-23T15:58:56;7.90;99.90
13205;DHT22;6667;52.634;9.226;2024-03-23T16:01:30;7.80;99.90
13205;DHT22;6667;52.634;9.226;2024-03-23T16:03:57;7.80;99.90
13205;DHT22;6667;52.634;9.226;2024-03-23T16:06:24;7.80;99.90
13205;DHT22;6667;52.634;9.226;2024-03-23T16:08:50;7.80;99.90
13205;DHT22;6667;52.634;9.226;2024-03-23T16:11:18;8.00;99.90
13205;DHT22;6667;52.634;9.226;2024-03-23T16:13:43;7.90;99.90
13205;DHT22;6667;52.634;9.226;2024-03-23T16:16:13;7.90;99.90
13205;DHT22;6667;52.634;9.226;2024-03-23T16:18:39;7.80;99.90
13205;DHT22;6667;52.634;9.226;2024-03-23T16:21:06;7.70;99.90
13205;DHT22;6667;52.634;9.226;2024-03-23T16:23:32;7.70;99.90
13205;DHT22;6667;52.634;9.226;2024-03-23T16:25:59;7.70;99.90
13205;DHT22;6667;52.634;9.226;2024-03-23T16:28:27;7.70;99.90
13205;DHT22;6667;52.634;9.226;2024-03-23T16:30:55;7.70;99.90
13205;DHT22;6667;52.634;9.226;2024-03-23T16:33:23;7.70;99.90
13205;DHT22;6667;52.634;9.226;2024-03-23T16:36:00;7.80;99.90
13205;DHT22;6667;52.634;9.226;2024-03-23T16:38:26;7.80;99.90
13205;DHT22;6667;52.634;9.226;2024-03-23T16:40:54;7.80;99.90
13205;DHT22;6667;52.634;9.226;2024-03-23T16:43:19;7.70;99.90
13205;DHT22;6667;52.634;9.226;2024-03-23T16:45:52;7.60;99.90
13205;DHT22;6667;52.634;9.226;2024-03-23T16:48:17;7.60;99.90